Franklin, TX (77856)

6:43 PM CST on November 26, 2014 (GMT -0600)
KTXFRANK3 | Change Station
CLOSE
Current Station
Personal Weather Station
Location: Franklin, TX
Elevation: 440 ft
Nearby Weather Stations

Elev 440 ft 31.02 °N, 96.51 °W | Updated 3 minutes ago

Clear
Clear
53.8 °F
Feels Like 53.8 °F
N
1.1
Wind Variable Wind from SSE

Today
High -- | Low -- °F
--% Chance of Precip.
Yesterday
High -- | Low -- °F
Precip. -- in
7:02 AM 5:23 PM
Waxing Crescent, 24% visible
Pressure 30.25 in
Visibility 10.0 miles
Clouds Clear
Dew Point 33 °F
Humidity 45%
Rainfall 0.00 in
Snow Depth Not available.
UV 0 out of 12
Pollen 5.40 out of 12
Air Quality Not available.
Flu Activity Not available.
METAR KLHB 270035Z AUTO 35008KT 10SM CLR 12/02 A3025 RMK AO2 T01230017

More Conditions Fewer Conditions

Pressure 30.25 in
Visibility 10.0 miles
Clouds Clear
Dew Point 33 °F
Humidity 45%
Rainfall 0.00 in
Snow Depth Not available.
UV 0 out of 12
Pollen 5.40 out of 12
Air Quality Not available.
Flu Activity Not available.
METAR KLHB 270035Z AUTO 35008KT 10SM CLR 12/02 A3025 RMK AO2 T01230017

More Conditions Fewer Conditions

10-Day Weather Forecast

Almanac

Astronomy

Nov. 26, 2014 Rise Set
Actual Time
Civil Twilight
Nautical Twilight
Astronomical Twilight
Moon
Length of Visible Light
Length of Day
Tomorrow will be .
, % of the Moon is Illuminated

Today's Extremes

State Highs State Lows

Community

WunderPhotos

Upload Photos

1,773,930 photos uploaded!

WunderBlogs® & News

Nearby

Air Quality

  Air Quality AQ Index Pollutant
Not available.

Snow Depth

Station Depth Elevation

Earthquake Activity

City Distance Mag. Time & Date
Minimum magnitude displayed is 2.5.

Coastal Water Temperatures

Place Temperature

Nearby Weather Stations